Time;durP1;ratioP1;P1;durP2;ratioP2;P2;SDS_P1;SDS_P2;PMS_P1;PMS_P2;Temp;Humidity;BMP_temperature;BMP_pressure;BME280_temperature;BME280_humidity;BME280_pressure;Samples;Min_cycle;Max_cycle;Signal;HPM_P1;HPM_P2
2021/01/27 00:00:07;;;;;;;20.60;18.40;;;2.30;99.90;;;;;;6201472;23;20450;-82
2021/01/27 00:02:35;;;;;;;19.10;16.93;;;2.20;99.90;;;;;;6164464;23;20810;-83
2021/01/27 00:05:06;;;;;;;20.87;16.90;;;2.20;99.90;;;;;;6165467;23;20477;-82
2021/01/27 00:07:33;;;;;;;26.30;17.30;;;2.20;99.90;;;;;;6202294;23;20414;-82
2021/01/27 00:10:00;;;;;;;25.47;19.83;;;2.10;99.90;;;;;;6165278;23;20439;-82
2021/01/27 00:12:29;;;;;;;22.67;18.37;;;2.10;99.90;;;;;;6206999;23;20417;-82
2021/01/27 00:14:56;;;;;;;21.33;18.83;;;2.10;99.90;;;;;;6164167;23;20449;-82
2021/01/27 00:17:23;;;;;;;21.47;18.77;;;2.10;99.90;;;;;;6164502;23;20418;-82
2021/01/27 00:19:50;;;;;;;20.87;18.67;;;2.10;99.90;;;;;;6164403;23;20956;-82
2021/01/27 00:22:18;;;;;;;21.37;19.07;;;2.10;99.90;;;;;;6200064;23;20404;-82
2021/01/27 00:24:45;;;;;;;24.23;19.20;;;2.00;99.90;;;;;;6163881;23;20415;-82
2021/01/27 00:27:12;;;;;;;24.77;19.97;;;2.00;99.90;;;;;;6200939;23;20466;-82
2021/01/27 00:29:41;;;;;;;22.50;16.90;;;2.00;99.90;;;;;;6164796;23;20522;-82
2021/01/27 00:32:10;;;;;;;21.90;17.53;;;2.00;99.90;;;;;;6164906;23;20462;-82
2021/01/27 00:34:37;;;;;;;20.90;18.80;;;2.00;99.90;;;;;;6201053;23;20400;-82
2021/01/27 00:37:06;;;;;;;24.37;21.73;;;1.90;99.90;;;;;;6165360;23;20412;-82
2021/01/27 00:39:33;;;;;;;23.20;20.70;;;1.90;99.90;;;;;;6164939;23;20522;-82
2021/01/27 00:42:00;;;;;;;27.33;20.40;;;1.90;99.90;;;;;;6165191;23;20474;-82
2021/01/27 00:44:28;;;;;;;27.27;22.83;;;1.90;99.90;;;;;;6202118;23;20458;-82
2021/01/27 00:46:56;;;;;;;22.43;17.60;;;1.90;99.90;;;;;;6165283;23;20435;-82
2021/01/27 00:49:23;;;;;;;28.20;21.47;;;1.90;99.90;;;;;;6163218;23;20435;-82
2021/01/27 00:51:51;;;;;;;28.00;22.00;;;1.80;99.90;;;;;;6200666;23;20404;-82
2021/01/27 00:54:18;;;;;;;30.63;23.43;;;1.80;99.90;;;;;;6163293;23;20511;-82
2021/01/27 00:56:47;;;;;;;26.83;23.67;;;1.80;99.90;;;;;;6164625;23;20500;-82
2021/01/27 00:59:14;;;;;;;31.97;23.30;;;1.80;99.90;;;;;;6163484;23;20440;-83
2021/01/27 01:01:42;;;;;;;28.07;23.47;;;1.80;99.90;;;;;;6163863;23;20423;-82
2021/01/27 01:04:20;;;;;;;29.27;23.40;;;1.80;99.90;;;;;;6163444;23;20752;-82
2021/01/27 01:06:48;;;;;;;27.30;20.13;;;1.80;99.90;;;;;;6164133;23;20440;-82
2021/01/27 01:09:15;;;;;;;29.23;23.67;;;1.80;99.90;;;;;;6168102;23;20428;-82
2021/01/27 01:11:42;;;;;;;29.80;23.70;;;1.80;99.90;;;;;;6162917;23;20434;-82
2021/01/27 01:14:10;;;;;;;26.87;21.50;;;1.70;99.90;;;;;;6162998;23;20512;-82
2021/01/27 01:16:38;;;;;;;30.83;27.57;;;1.80;99.90;;;;;;6163184;23;20463;-82
2021/01/27 01:19:07;;;;;;;31.53;24.20;;;1.70;99.90;;;;;;6163172;23;20440;-82
2021/01/27 01:21:38;;;;;;;26.20;20.90;;;1.70;99.90;;;;;;6199538;23;20720;-82
2021/01/27 01:24:07;;;;;;;30.70;27.37;;;1.70;99.90;;;;;;6162792;23;20420;-82
2021/01/27 01:26:34;;;;;;;34.20;28.47;;;1.70;99.90;;;;;;6163023;23;20903;-82
2021/01/27 01:29:04;;;;;;;31.37;25.60;;;1.70;99.90;;;;;;6163614;23;20918;-82
2021/01/27 01:31:31;;;;;;;36.37;29.37;;;1.70;99.90;;;;;;6203215;23;20404;-82
2021/01/27 01:33:59;;;;;;;33.20;27.60;;;1.70;99.90;;;;;;6201127;23;20400;-82
2021/01/27 01:36:27;;;;;;;33.60;25.73;;;1.70;99.90;;;;;;6165175;23;20723;-82
2021/01/27 01:38:55;;;;;;;36.30;26.63;;;1.70;99.90;;;;;;6201564;23;20429;-82
2021/01/27 01:41:22;;;;;;;36.83;28.37;;;1.70;99.90;;;;;;6201449;23;20581;-82
2021/01/27 01:43:50;;;;;;;36.53;27.37;;;1.70;99.90;;;;;;6164965;23;20565;-82
2021/01/27 01:46:20;;;;;;;38.60;30.40;;;1.70;99.90;;;;;;6201580;23;20880;-82
2021/01/27 01:48:53;;;;;;;36.50;30.80;;;1.70;99.90;;;;;;6200880;23;20440;-82
2021/01/27 01:51:27;;;;;;;36.60;30.30;;;1.70;99.90;;;;;;6201889;23;20437;-82
2021/01/27 01:54:00;;;;;;;41.73;34.53;;;1.80;99.90;;;;;;6165282;23;20418;-82
2021/01/27 01:56:30;;;;;;;39.80;31.00;;;1.70;99.90;;;;;;6165750;23;20713;-82
2021/01/27 01:59:01;;;;;;;35.07;28.73;;;1.80;99.90;;;;;;6165262;23;20517;-82
2021/01/27 02:01:29;;;;;;;39.77;33.13;;;1.80;99.90;;;;;;6165533;23;20438;-82
2021/01/27 02:03:57;;;;;;;42.10;34.00;;;1.80;99.90;;;;;;6166062;23;20527;-82
2021/01/27 02:06:25;;;;;;;41.40;33.33;;;1.80;99.90;;;;;;6166167;23;20423;-82
2021/01/27 02:08:56;;;;;;;47.53;36.87;;;1.80;99.90;;;;;;6165626;23;20944;-82
2021/01/27 02:11:37;;;;;;;41.00;36.20;;;1.80;99.90;;;;;;6166483;23;20477;-82
2021/01/27 02:14:16;;;;;;;41.80;33.53;;;1.80;99.90;;;;;;6166341;23;20454;-82
2021/01/27 02:16:52;;;;;;;42.43;35.03;;;1.80;99.90;;;;;;6202730;23;20391;-82
2021/01/27 02:19:58;;;;;;;43.63;34.80;;;1.80;99.90;;;;;;6166484;23;20523;-83
2021/01/27 02:23:00;;;;;;;37.63;30.93;;;1.80;99.90;;;;;;6204434;23;20458;-82
2021/01/27 02:25:56;;;;;;;41.57;34.73;;;1.80;99.90;;;;;;6168787;23;20462;-83
2021/01/27 02:29:00;;;;;;;42.10;32.40;;;1.80;99.90;;;;;;6164644;23;20440;-82
2021/01/27 02:31:37;;;;;;;41.90;37.17;;;1.80;99.90;;;;;;6164336;23;20409;-82
2021/01/27 02:34:17;;;;;;;40.20;31.63;;;1.90;99.90;;;;;;6165043;23;20451;-82
2021/01/27 02:36:49;;;;;;;42.57;36.20;;;1.90;99.90;;;;;;6201223;23;20409;-82
2021/01/27 02:39:22;;;;;;;45.50;38.97;;;1.90;99.90;;;;;;6163694;23;20542;-82
2021/01/27 02:41:58;;;;;;;42.03;35.70;;;1.90;99.90;;;;;;6164596;23;20412;-82
2021/01/27 02:44:36;;;;;;;42.03;35.83;;;1.90;99.90;;;;;;6164814;23;20498;-82
2021/01/27 02:47:12;;;;;;;45.60;38.90;;;2.00;99.90;;;;;;6165286;23;20432;-82
2021/01/27 02:49:48;;;;;;;44.23;37.37;;;2.00;99.90;;;;;;6165264;23;20509;-82
2021/01/27 02:52:20;;;;;;;47.53;39.70;;;2.00;99.90;;;;;;6172905;23;20416;-83
2021/01/27 02:55:05;;;;;;;44.97;38.90;;;2.00;99.90;;;;;;6164550;23;20460;-82
2021/01/27 02:57:37;;;;;;;45.63;38.30;;;2.00;99.90;;;;;;6165426;23;20438;-82
2021/01/27 03:00:08;;;;;;;46.60;39.33;;;2.00;99.90;;;;;;6164526;23;20495;-82
2021/01/27 03:02:41;;;;;;;46.10;39.10;;;2.00;99.90;;;;;;6164877;23;20447;-82
2021/01/27 03:05:14;;;;;;;46.90;41.45;;;2.00;99.90;;;;;;6164200;23;20425;-82
2021/01/27 03:07:45;;;;;;;46.70;40.63;;;2.10;99.90;;;;;;6164124;23;20215;-82
2021/01/27 03:10:16;;;;;;;43.70;36.93;;;2.10;99.90;;;;;;6163553;23;20822;-82
2021/01/27 03:12:46;;;;;;;43.63;37.00;;;2.10;99.90;;;;;;6201405;23;20372;-82
2021/01/27 03:15:14;;;;;;;45.07;38.27;;;2.10;99.90;;;;;;6164500;23;20416;-82
2021/01/27 03:17:43;;;;;;;46.43;39.63;;;2.10;99.90;;;;;;6164248;23;20406;-82
2021/01/27 03:20:17;;;;;;;42.40;33.20;;;2.10;99.90;;;;;;6164197;23;20534;-82
2021/01/27 03:22:49;;;;;;;51.67;39.10;;;2.10;99.90;;;;;;6164810;23;20400;-82
2021/01/27 03:25:20;;;;;;;43.43;38.73;;;2.00;99.90;;;;;;6164666;23;20874;-82
2021/01/27 03:28:02;;;;;;;43.23;38.43;;;2.10;99.90;;;;;;6164114;23;20477;-82
2021/01/27 03:30:31;;;;;;;44.70;38.33;;;2.10;99.90;;;;;;6163623;23;20496;-82
2021/01/27 03:33:05;;;;;;;42.60;37.53;;;2.00;99.90;;;;;;6164478;23;20462;-82
2021/01/27 03:35:38;;;;;;;48.03;41.90;;;2.00;99.90;;;;;;6164921;23;20411;-82
2021/01/27 03:38:12;;;;;;;45.40;39.30;;;2.10;99.90;;;;;;6164205;23;20433;-82
2021/01/27 03:40:46;;;;;;;44.87;40.17;;;2.10;99.90;;;;;;6164871;23;20439;-82
2021/01/27 03:43:19;;;;;;;46.47;41.47;;;2.10;99.90;;;;;;6164665;23;20423;-82
2021/01/27 03:45:50;;;;;;;44.33;39.40;;;2.10;99.90;;;;;;6165586;23;20417;-82
2021/01/27 03:48:24;;;;;;;47.43;39.70;;;2.00;99.90;;;;;;6201984;23;20982;-82
2021/01/27 03:50:55;;;;;;;47.27;39.87;;;2.10;99.90;;;;;;6165568;23;20408;-82
2021/01/27 03:53:25;;;;;;;45.20;40.23;;;2.10;99.90;;;;;;6166736;23;20922;-82
2021/01/27 03:55:58;;;;;;;45.70;40.70;;;2.10;99.90;;;;;;6167031;23;20410;-83
2021/01/27 03:58:32;;;;;;;48.77;43.37;;;2.10;99.90;;;;;;6166477;23;20462;-82
2021/01/27 04:01:05;;;;;;;45.80;39.03;;;2.10;99.90;;;;;;6165342;23;20413;-82
2021/01/27 04:03:33;;;;;;;47.20;41.40;;;2.10;99.90;;;;;;6201393;23;20396;-82
2021/01/27 04:06:00;;;;;;;51.47;42.87;;;2.10;99.90;;;;;;6165049;23;20412;-82
2021/01/27 04:08:28;;;;;;;44.60;39.40;;;2.10;99.90;;;;;;6164871;23;20482;-82
2021/01/27 04:10:56;;;;;;;47.10;39.70;;;2.10;99.90;;;;;;6205376;23;20397;-82
2021/01/27 04:13:23;;;;;;;45.63;40.07;;;2.10;99.90;;;;;;6164124;23;20535;-83
2021/01/27 04:15:50;;;;;;;46.47;40.67;;;2.10;99.90;;;;;;6201557;23;20423;-82
2021/01/27 04:18:20;;;;;;;46.63;41.73;;;2.10;99.90;;;;;;6165751;23;20419;-82
2021/01/27 04:20:51;;;;;;;43.20;37.80;;;2.10;99.90;;;;;;6168444;23;20403;-82
2021/01/27 04:23:18;;;;;;;43.83;38.03;;;2.10;99.90;;;;;;6169716;23;20415;-82
2021/01/27 04:25:47;;;;;;;44.93;39.10;;;2.10;99.90;;;;;;6168992;23;20426;-82
2021/01/27 04:28:14;;;;;;;42.70;38.20;;;2.10;99.90;;;;;;6204832;23;20507;-82
2021/01/27 04:30:41;;;;;;;45.93;36.60;;;2.10;99.90;;;;;;6166943;23;20467;-82
2021/01/27 04:33:11;;;;;;;43.23;38.13;;;2.10;99.90;;;;;;6163807;23;20481;-82
2021/01/27 04:35:39;;;;;;;46.67;37.60;;;2.10;99.90;;;;;;6164453;23;20454;-82
2021/01/27 04:38:07;;;;;;;43.40;38.80;;;2.10;99.90;;;;;;6164799;23;20901;-82
2021/01/27 04:40:39;;;;;;;45.50;40.17;;;2.20;99.90;;;;;;6163936;23;20998;-82
2021/01/27 04:43:19;;;;;;;41.20;34.67;;;2.20;99.90;;;;;;6163678;23;20417;-82
2021/01/27 04:45:55;;;;;;;43.90;36.80;;;2.20;99.90;;;;;;6200391;23;20844;-82
2021/01/27 04:48:30;;;;;;;39.70;35.30;;;2.20;99.90;;;;;;6163964;23;20435;-82
2021/01/27 04:51:02;;;;;;;41.37;34.00;;;2.10;99.90;;;;;;6163999;23;20411;-82
2021/01/27 04:53:38;;;;;;;39.10;35.10;;;2.10;99.90;;;;;;6200496;23;20399;-82
2021/01/27 04:56:44;;;;;;;39.67;34.90;;;2.20;99.90;;;;;;6163786;23;20411;-82
2021/01/27 04:59:17;;;;;;;40.20;35.53;;;2.10;99.90;;;;;;6026572;23;20449;-82
2021/01/27 05:02:01;;;;;;;37.90;33.90;;;2.20;99.90;;;;;;6200736;23;20390;-82
2021/01/27 05:04:39;;;;;;;37.93;33.67;;;2.20;99.90;;;;;;6201312;23;20854;-82
2021/01/27 05:07:11;;;;;;;40.60;36.30;;;2.20;99.90;;;;;;6166547;23;20471;-82
2021/01/27 05:09:45;;;;;;;36.77;32.87;;;2.20;99.90;;;;;;6166343;23;20427;-82
2021/01/27 05:12:15;;;;;;;37.30;30.90;;;2.10;99.90;;;;;;6166437;23;20409;-82
2021/01/27 05:14:46;;;;;;;32.10;27.50;;;2.20;99.90;;;;;;6166701;23;20469;-82
2021/01/27 05:17:17;;;;;;;38.07;34.07;;;2.10;99.90;;;;;;6166577;23;20407;-82
2021/01/27 05:19:45;;;;;;;37.80;33.70;;;2.10;99.90;;;;;;6203409;23;20419;-82
2021/01/27 05:22:14;;;;;;;35.83;31.37;;;2.10;99.90;;;;;;6166868;23;20412;-82
2021/01/27 05:24:42;;;;;;;40.40;32.30;;;2.10;99.90;;;;;;6166618;23;20412;-82
2021/01/27 05:27:15;;;;;;;34.53;30.80;;;2.10;99.90;;;;;;6167553;23;20789;-82
2021/01/27 05:29:44;;;;;;;36.13;32.53;;;2.10;99.90;;;;;;6168260;23;20437;-82
2021/01/27 05:32:14;;;;;;;36.00;32.10;;;2.10;99.90;;;;;;6205150;23;20384;-82
2021/01/27 05:34:43;;;;;;;36.13;31.93;;;2.10;99.90;;;;;;6167964;23;20411;-82
2021/01/27 05:37:15;;;;;;;35.37;31.83;;;2.10;99.90;;;;;;6169415;23;20411;-83
2021/01/27 05:39:44;;;;;;;35.90;32.03;;;2.10;99.90;;;;;;6189942;23;20940;-82
2021/01/27 05:42:38;;;;;;;37.40;33.50;;;2.10;99.90;;;;;;6165952;23;20447;-82
2021/01/27 05:45:29;;;;;;;35.77;32.00;;;2.10;99.90;;;;;;6114805;23;20937;-82
2021/01/27 05:48:27;;;;;;;36.13;32.20;;;2.10;99.90;;;;;;6190287;23;20436;-82
2021/01/27 05:51:12;;;;;;;34.93;31.27;;;2.10;99.90;;;;;;6165675;23;20427;-82
2021/01/27 05:53:40;;;;;;;33.93;30.20;;;2.10;99.90;;;;;;6165723;23;20415;-82
2021/01/27 05:56:15;;;;;;;35.97;32.33;;;2.10;99.90;;;;;;6165749;23;20411;-82
2021/01/27 05:58:55;;;;;;;35.87;32.10;;;2.10;99.90;;;;;;6166101;23;20439;-82
2021/01/27 06:01:37;;;;;;;34.90;31.43;;;2.10;99.90;;;;;;6166275;23;20406;-82
2021/01/27 06:04:21;;;;;;;34.97;31.27;;;2.00;99.90;;;;;;6197550;23;20380;-82
2021/01/27 06:07:01;;;;;;;34.37;30.73;;;2.10;99.90;;;;;;6164514;23;20425;-82
2021/01/27 06:09:40;;;;;;;32.07;28.20;;;2.10;99.90;;;;;;6163736;23;20447;-82
2021/01/27 06:12:12;;;;;;;36.60;33.00;;;2.00;99.90;;;;;;6164088;23;20471;-82
2021/01/27 06:14:40;;;;;;;35.10;31.40;;;2.00;99.90;;;;;;6165525;23;20485;-82
2021/01/27 06:17:23;;;;;;;32.20;28.90;;;2.00;99.90;;;;;;6165889;23;20421;-82
2021/01/27 06:20:01;;;;;;;34.17;30.80;;;2.00;99.90;;;;;;6164255;23;20443;-82
2021/01/27 06:22:50;;;;;;;32.67;29.47;;;2.00;99.90;;;;;;6164243;23;20878;-82
2021/01/27 06:25:29;;;;;;;32.80;29.30;;;2.00;99.90;;;;;;6202478;23;20396;-83
2021/01/27 06:28:22;;;;;;;32.47;29.53;;;2.00;99.90;;;;;;6164298;23;20431;-83
2021/01/27 06:31:21;;;;;;;39.63;35.57;;;2.00;99.90;;;;;;6200487;23;20881;-83
2021/01/27 06:34:13;;;;;;;31.60;28.60;;;2.00;99.90;;;;;;6148523;23;20884;-83
2021/01/27 06:36:55;;;;;;;34.20;31.07;;;1.90;99.90;;;;;;6164729;23;20408;-83
2021/01/27 06:39:47;;;;;;;32.75;29.65;;;1.90;99.90;;;;;;6163299;23;20419;-83
2021/01/27 06:42:29;;;;;;;32.77;29.67;;;2.10;99.90;;;;;;6153388;23;20181;-83
2021/01/27 06:45:08;;;;;;;34.53;31.17;;;2.00;99.90;;;;;;6164688;23;20403;-82
2021/01/27 06:48:18;;;;;;;35.60;32.20;;;2.00;99.90;;;;;;6201585;23;20408;-83
2021/01/27 06:51:08;;;;;;;32.80;29.80;;;2.00;99.90;;;;;;6165073;23;20229;-82
2021/01/27 06:53:58;;;;;;;33.10;30.10;;;1.90;99.90;;;;;;6200766;23;20395;-83
2021/01/27 06:56:42;;;;;;;33.57;30.47;;;1.90;99.90;;;;;;6201691;23;20396;-83
2021/01/27 06:59:45;;;;;;;32.63;29.37;;;1.90;99.90;;;;;;6164737;23;20432;-82
2021/01/27 07:02:55;;;;;;;38.30;34.30;;;1.90;99.90;;;;;;6164639;23;20423;-83
2021/01/27 07:05:34;;;;;;;34.43;31.13;;;1.80;99.90;;;;;;6165242;23;20426;-83
2021/01/27 07:08:21;;;;;;;32.67;29.70;;;1.80;99.90;;;;;;6165695;23;20513;-81
2021/01/27 07:11:08;;;;;;;32.13;28.77;;;1.80;99.90;;;;;;6166442;23;20424;-81
2021/01/27 07:14:08;;;;;;;31.00;27.90;;;1.80;99.90;;;;;;6168339;23;20482;-80
2021/01/27 07:16:48;;;;;;;33.23;30.03;;;1.80;99.90;;;;;;6163906;23;20407;-80
2021/01/27 07:19:48;;;;;;;28.83;26.03;;;1.80;99.90;;;;;;6163116;23;20443;-81
2021/01/27 07:22:22;;;;;;;31.10;28.30;;;1.80;99.90;;;;;;6162727;23;20444;-81
2021/01/27 07:25:01;;;;;;;29.50;26.50;;;1.70;99.90;;;;;;6160612;23;20422;-81
2021/01/27 07:27:33;;;;;;;31.90;29.00;;;1.70;99.90;;;;;;6162023;23;20418;-81
2021/01/27 07:30:05;;;;;;;30.87;27.93;;;1.70;99.90;;;;;;6162705;23;20998;-81
2021/01/27 07:32:38;;;;;;;29.30;26.47;;;1.70;99.90;;;;;;6199187;23;20393;-81
2021/01/27 07:35:12;;;;;;;30.30;27.67;;;1.70;99.90;;;;;;6162994;23;20435;-80
2021/01/27 07:37:43;;;;;;;30.83;27.90;;;1.70;99.90;;;;;;6198773;23;20423;-81
2021/01/27 07:40:15;;;;;;;30.10;27.30;;;1.70;99.90;;;;;;6162263;23;20435;-81
2021/01/27 07:42:51;;;;;;;33.67;30.37;;;1.70;99.90;;;;;;6161377;23;20411;-81
2021/01/27 07:45:22;;;;;;;31.03;28.17;;;1.70;99.90;;;;;;6163512;23;20412;-80
2021/01/27 07:48:03;;;;;;;28.57;25.70;;;1.70;99.90;;;;;;6163523;23;20504;-81
2021/01/27 07:50:33;;;;;;;29.37;26.67;;;1.70;99.90;;;;;;6163149;23;20958;-81
2021/01/27 07:53:17;;;;;;;29.63;26.97;;;1.70;99.90;;;;;;6163176;23;20426;-80
2021/01/27 07:55:53;;;;;;;27.63;25.07;;;1.60;99.90;;;;;;6163142;23;20740;-81
2021/01/27 07:58:28;;;;;;;29.10;26.43;;;1.60;99.90;;;;;;6163097;23;20412;-81
2021/01/27 08:01:02;;;;;;;27.37;24.57;;;1.60;99.90;;;;;;6199107;23;20390;-80
2021/01/27 08:03:38;;;;;;;28.87;25.97;;;1.60;99.90;;;;;;6199858;23;20398;-80
2021/01/27 08:06:09;;;;;;;26.37;24.00;;;1.60;99.90;;;;;;6163836;23;20416;-80
2021/01/27 08:08:49;;;;;;;27.30;24.53;;;1.60;99.90;;;;;;6163220;23;20439;-80
2021/01/27 08:11:21;;;;;;;28.40;25.70;;;1.60;99.90;;;;;;6164188;23;20881;-80
2021/01/27 08:13:50;;;;;;;25.27;22.83;;;1.70;99.90;;;;;;6200593;23;20392;-80
2021/01/27 08:16:37;;;;;;;25.47;23.07;;;1.70;99.90;;;;;;6164382;23;20495;-80
2021/01/27 08:19:30;;;;;;;25.13;22.63;;;1.70;99.90;;;;;;6163679;23;20459;-81
2021/01/27 08:22:01;;;;;;;29.20;25.90;;;1.70;99.90;;;;;;6200461;23;20384;-81
2021/01/27 08:24:56;;;;;;;26.20;23.90;;;1.70;99.90;;;;;;6163965;23;20420;-81
2021/01/27 08:27:38;;;;;;;22.13;20.03;;;1.80;99.90;;;;;;6163727;23;20796;-81
2021/01/27 08:30:24;;;;;;;20.60;18.70;;;1.80;99.90;;;;;;6161594;23;20438;-81
2021/01/27 08:33:27;;;;;;;19.97;18.00;;;1.80;99.90;;;;;;6200534;23;20400;-81
2021/01/27 08:36:00;;;;;;;20.40;18.50;;;1.80;99.90;;;;;;6130805;23;20430;-80
2021/01/27 08:38:29;;;;;;;22.03;19.90;;;1.80;99.90;;;;;;6165758;23;20422;-81
2021/01/27 08:40:57;;;;;;;20.43;18.50;;;1.80;99.90;;;;;;6201838;23;20428;-81
2021/01/27 08:43:29;;;;;;;18.00;16.20;;;1.90;99.90;;;;;;6166263;23;20448;-81
2021/01/27 08:45:57;;;;;;;16.63;15.13;;;1.80;99.90;;;;;;6167507;23;20407;-81
2021/01/27 08:48:51;;;;;;;16.60;15.00;;;1.90;99.90;;;;;;6165433;23;20439;-80
2021/01/27 08:51:47;;;;;;;16.70;15.10;;;1.90;99.90;;;;;;6163880;23;20416;-80
2021/01/27 08:54:29;;;;;;;17.40;15.90;;;1.90;99.90;;;;;;6114330;23;20426;-81
2021/01/27 08:57:23;;;;;;;15.97;14.57;;;1.90;99.90;;;;;;6199815;23;20779;-81
2021/01/27 09:00:05;;;;;;;16.87;15.17;;;2.00;99.90;;;;;;6199805;23;20419;-81
2021/01/27 09:02:46;;;;;;;17.03;15.40;;;2.00;99.90;;;;;;6199031;23;20450;-81
2021/01/27 09:05:36;;;;;;;16.73;15.13;;;2.10;99.90;;;;;;6169947;23;20483;-81
2021/01/27 09:08:06;;;;;;;16.77;15.17;;;2.10;99.90;;;;;;6185073;23;20493;-81
2021/01/27 09:10:37;;;;;;;17.50;15.73;;;2.20;99.90;;;;;;6200145;23;20420;-81
2021/01/27 09:13:21;;;;;;;15.97;14.57;;;2.20;99.90;;;;;;6162891;23;20916;-81
2021/01/27 09:15:52;;;;;;;16.40;14.80;;;2.30;99.90;;;;;;6200414;23;20397;-81
2021/01/27 09:18:22;;;;;;;16.63;14.90;;;2.30;99.90;;;;;;6164091;23;20408;-81
2021/01/27 09:20:50;;;;;;;16.30;14.80;;;2.30;99.90;;;;;;6163636;23;20913;-81
2021/01/27 09:23:19;;;;;;;15.13;13.73;;;2.30;99.90;;;;;;6164262;23;20899;-81
2021/01/27 09:25:48;;;;;;;16.57;14.87;;;2.40;99.90;;;;;;6199975;23;20388;-80
2021/01/27 09:28:23;;;;;;;16.17;14.60;;;2.30;99.90;;;;;;6163437;23;20463;-81
2021/01/27 09:30:51;;;;;;;16.37;14.80;;;2.40;99.90;;;;;;6163498;23;20528;-81
2021/01/27 09:33:28;;;;;;;15.63;13.97;;;2.40;99.90;;;;;;6163693;23;20429;-81
2021/01/27 09:36:07;;;;;;;14.80;13.50;;;2.40;99.90;;;;;;6163823;23;20411;-81
2021/01/27 09:38:35;;;;;;;16.27;14.67;;;2.40;99.90;;;;;;6173862;23;20485;-82
2021/01/27 09:41:06;;;;;;;16.27;14.70;;;2.40;99.90;;;;;;6165457;23;20444;-81
2021/01/27 09:43:36;;;;;;;15.43;14.03;;;2.40;99.90;;;;;;6166962;23;20424;-80
2021/01/27 09:46:18;;;;;;;15.93;14.43;;;2.50;99.90;;;;;;6167996;23;20526;-80
2021/01/27 09:48:48;;;;;;;18.83;16.83;;;2.50;99.90;;;;;;6162673;23;20504;-81
2021/01/27 09:51:17;;;;;;;14.27;12.83;;;2.50;99.90;;;;;;6200235;23;20387;-81
2021/01/27 09:53:45;;;;;;;14.03;12.80;;;2.50;99.90;;;;;;6164142;23;20426;-81
2021/01/27 09:56:17;;;;;;;15.30;13.67;;;2.50;99.90;;;;;;6201344;23;20427;-81
2021/01/27 09:58:45;;;;;;;14.17;12.77;;;2.50;99.90;;;;;;6200908;23;20411;-81
2021/01/27 10:01:17;;;;;;;15.77;14.20;;;2.50;99.90;;;;;;6199321;23;20442;-81
2021/01/27 10:03:46;;;;;;;15.50;14.00;;;2.40;99.90;;;;;;6163408;23;20414;-81
2021/01/27 10:06:34;;;;;;;16.03;14.53;;;2.50;99.90;;;;;;6200992;23;20403;-81
2021/01/27 10:09:06;;;;;;;15.00;13.60;;;2.50;99.90;;;;;;6200570;23;20446;-81
2021/01/27 10:11:36;;;;;;;15.30;13.80;;;2.40;99.90;;;;;;6164901;23;20419;-80
2021/01/27 10:14:05;;;;;;;15.73;13.80;;;2.40;99.90;;;;;;6202138;23;20426;-81
2021/01/27 10:16:33;;;;;;;16.80;14.87;;;2.40;99.90;;;;;;6165799;23;20460;-81
2021/01/27 10:19:07;;;;;;;15.20;13.70;;;2.40;99.90;;;;;;6204791;23;20897;-81
2021/01/27 10:21:44;;;;;;;15.73;14.23;;;2.40;99.90;;;;;;6204567;23;20497;-81
2021/01/27 10:24:18;;;;;;;15.73;14.30;;;2.40;99.90;;;;;;6167304;23;20415;-80
2021/01/27 10:26:45;;;;;;;14.90;13.50;;;2.40;99.90;;;;;;6164948;23;20467;-81
2021/01/27 10:29:26;;;;;;;16.17;14.67;;;2.40;99.90;;;;;;6163568;23;20443;-80
2021/01/27 10:31:55;;;;;;;15.93;14.53;;;2.40;99.90;;;;;;6163142;23;20418;-81
2021/01/27 10:34:38;;;;;;;16.43;14.90;;;2.50;99.90;;;;;;6163127;23;20408;-80
2021/01/27 10:37:24;;;;;;;19.67;17.77;;;2.50;99.90;;;;;;6162592;23;20481;-80
2021/01/27 10:40:15;;;;;;;15.70;14.20;;;2.50;99.90;;;;;;6133754;23;20429;-81
2021/01/27 10:42:45;;;;;;;17.37;15.87;;;2.50;99.90;;;;;;6134699;23;20444;-81
2021/01/27 10:45:31;;;;;;;17.50;15.90;;;2.50;99.90;;;;;;6133487;23;20425;-81
2021/01/27 10:48:13;;;;;;;17.17;15.57;;;2.50;99.90;;;;;;6169314;23;20404;-81
2021/01/27 10:50:44;;;;;;;16.30;14.80;;;2.60;99.90;;;;;;6132818;23;20438;-81
2021/01/27 10:53:31;;;;;;;17.13;15.53;;;2.70;99.90;;;;;;6131191;23;20443;-81
2021/01/27 10:55:58;;;;;;;16.43;14.83;;;2.60;99.90;;;;;;6168749;23;20457;-80
2021/01/27 10:58:25;;;;;;;17.13;15.50;;;2.70;99.90;;;;;;6132579;23;20423;-81
2021/01/27 11:01:04;;;;;;;16.60;15.20;;;2.70;99.90;;;;;;6132302;23;20787;-81
2021/01/27 11:03:31;;;;;;;15.70;14.20;;;2.70;99.90;;;;;;6140803;23;20416;-80
2021/01/27 11:06:02;;;;;;;15.53;14.17;;;2.70;99.90;;;;;;6135108;23;20427;-81
2021/01/27 11:08:32;;;;;;;16.10;14.80;;;2.70;99.90;;;;;;6133509;23;20447;-81
2021/01/27 11:11:26;;;;;;;16.13;14.63;;;2.70;99.90;;;;;;6169948;23;20418;-80
2021/01/27 11:13:54;;;;;;;17.57;15.97;;;2.80;99.90;;;;;;6132488;23;20416;-81
2021/01/27 11:16:21;;;;;;;15.40;14.10;;;2.70;99.90;;;;;;6135281;23;20930;-80
2021/01/27 11:18:49;;;;;;;16.77;15.17;;;2.80;99.90;;;;;;6135360;23;20439;-81
2021/01/27 11:21:19;;;;;;;15.80;14.50;;;2.80;99.90;;;;;;6135227;23;20407;-80
2021/01/27 11:23:47;;;;;;;16.30;14.70;;;2.70;99.90;;;;;;6138501;23;20416;-80
2021/01/27 11:26:19;;;;;;;14.80;13.50;;;2.80;99.90;;;;;;6173328;23;20405;-81
2021/01/27 11:28:48;;;;;;;24.67;22.20;;;2.80;99.90;;;;;;6137725;23;20479;-81
2021/01/27 11:31:16;;;;;;;15.10;13.80;;;2.80;99.90;;;;;;6173738;23;20402;-81
2021/01/27 11:33:45;;;;;;;15.10;13.80;;;2.80;99.90;;;;;;6137426;23;20414;-81
2021/01/27 11:36:17;;;;;;;14.70;13.30;;;2.80;99.90;;;;;;6176508;23;20373;-81
2021/01/27 11:38:44;;;;;;;14.50;13.30;;;2.80;99.90;;;;;;6137325;23;20504;-81
2021/01/27 11:41:13;;;;;;;13.97;12.87;;;2.80;99.90;;;;;;6174284;23;20402;-81
2021/01/27 11:43:42;;;;;;;15.47;14.13;;;2.80;99.90;;;;;;6137730;23;20426;-81
2021/01/27 11:46:09;;;;;;;14.20;13.00;;;2.80;99.90;;;;;;6138245;23;20467;-82
2021/01/27 11:48:41;;;;;;;14.77;13.47;;;2.80;99.90;;;;;;6175310;23;20447;-82
2021/01/27 11:51:10;;;;;;;14.87;13.67;;;2.80;99.90;;;;;;6138749;23;20416;-82
2021/01/27 11:53:42;;;;;;;15.23;13.90;;;2.80;99.90;;;;;;6139163;23;20444;-82
2021/01/27 11:56:10;;;;;;;16.13;14.63;;;2.80;99.90;;;;;;6141931;23;20420;-81
2021/01/27 11:58:39;;;;;;;15.70;14.40;;;2.80;99.90;;;;;;6141758;23;20414;-81
2021/01/27 12:01:07;;;;;;;15.43;14.13;;;2.80;99.90;;;;;;6141050;23;20467;-82
2021/01/27 12:03:34;;;;;;;15.73;14.13;;;2.80;99.90;;;;;;6140068;23;20420;-83
2021/01/27 12:06:02;;;;;;;15.27;13.97;;;2.90;99.90;;;;;;6138279;23;20411;-82
2021/01/27 12:08:29;;;;;;;15.97;14.50;;;2.90;99.90;;;;;;6138605;23;20429;-82
2021/01/27 12:10:56;;;;;;;16.07;14.67;;;2.80;99.90;;;;;;6140718;23;20422;-82
2021/01/27 12:13:24;;;;;;;16.53;15.03;;;2.90;99.90;;;;;;6138257;23;20433;-82
2021/01/27 12:15:53;;;;;;;15.87;14.47;;;2.90;99.90;;;;;;6137755;23;20420;-82
2021/01/27 12:18:21;;;;;;;17.00;15.53;;;2.90;99.90;;;;;;6137361;23;20421;-82
2021/01/27 12:20:49;;;;;;;16.03;14.67;;;2.90;99.90;;;;;;6138894;23;20423;-82
2021/01/27 12:23:20;;;;;;;16.40;14.83;;;2.90;99.90;;;;;;6138677;23;20406;-82
2021/01/27 12:25:47;;;;;;;16.50;15.10;;;2.90;99.90;;;;;;6138224;23;20413;-82
2021/01/27 12:28:15;;;;;;;15.90;14.60;;;2.90;99.90;;;;;;6137095;23;20417;-81
2021/01/27 12:30:43;;;;;;;17.20;15.70;;;2.90;99.90;;;;;;6137977;23;20435;-81
2021/01/27 12:33:11;;;;;;;17.17;15.77;;;2.90;99.90;;;;;;6137585;23;20744;-82
2021/01/27 12:35:39;;;;;;;19.63;17.73;;;2.90;99.90;;;;;;6174311;23;20423;-82
2021/01/27 12:38:06;;;;;;;19.13;17.43;;;2.90;99.90;;;;;;6139490;23;20428;-82
2021/01/27 12:40:34;;;;;;;17.10;15.60;;;2.90;99.90;;;;;;6175199;23;20443;-82
2021/01/27 12:43:01;;;;;;;16.67;15.27;;;3.00;99.90;;;;;;6138623;23;20418;-82
2021/01/27 12:45:29;;;;;;;17.17;15.70;;;2.90;99.90;;;;;;6139161;23;20411;-82
2021/01/27 12:47:57;;;;;;;17.10;15.70;;;2.90;99.90;;;;;;6139697;23;20431;-82
2021/01/27 12:50:26;;;;;;;16.63;15.20;;;2.90;99.90;;;;;;6174477;23;20446;-82
2021/01/27 12:52:53;;;;;;;16.97;15.57;;;2.90;99.90;;;;;;6174224;23;20407;-82
2021/01/27 12:55:21;;;;;;;17.33;15.80;;;2.90;99.90;;;;;;6139091;23;20423;-82
2021/01/27 12:57:49;;;;;;;17.97;16.47;;;2.90;99.90;;;;;;6140558;23;20436;-82
2021/01/27 13:00:20;;;;;;;17.33;15.80;;;2.90;99.90;;;;;;6140670;23;20507;-82
2021/01/27 13:02:49;;;;;;;17.67;16.17;;;2.90;99.90;;;;;;6142322;23;20420;-82
2021/01/27 13:05:18;;;;;;;17.77;16.37;;;3.00;99.90;;;;;;6141928;23;20416;-82
2021/01/27 13:07:46;;;;;;;16.95;15.38;;;3.00;99.90;;;;;;6137282;23;20444;-82
2021/01/27 13:10:15;;;;;;;17.53;15.83;;;3.10;99.90;;;;;;6137300;23;20604;-82